Time;durP1;ratioP1;P1;durP2;ratioP2;P2;SDS_P1;SDS_P2;PMS_P1;PMS_P2;Temp;Humidity;BMP_temperature;BMP_pressure;BME280_temperature;BME280_humidity;BME280_pressure;Samples;Min_cycle;Max_cycle;Signal;HPM_P1;HPM_P2
2023/04/09 00:02:12;;;;;;;59.22;40.92;;;8.40;99.90;;;;;;5014261;28;20054;-62
2023/04/09 00:04:38;;;;;;;57.42;39.75;;;8.50;99.90;;;;;;4998292;28;20394;-62
2023/04/09 00:07:03;;;;;;;67.57;44.10;;;8.50;99.90;;;;;;4993163;28;20568;-62
2023/04/09 00:09:29;;;;;;;65.22;44.45;;;8.50;99.90;;;;;;4993945;28;20096;-62
2023/04/09 00:11:55;;;;;;;67.75;44.47;;;8.50;99.90;;;;;;5012158;28;20041;-62
2023/04/09 00:14:21;;;;;;;61.10;41.83;;;8.50;99.90;;;;;;5012448;28;20049;-63
2023/04/09 00:16:47;;;;;;;65.88;43.55;;;8.50;99.90;;;;;;5012119;28;20037;-62
2023/04/09 00:19:12;;;;;;;70.47;44.22;;;8.50;99.90;;;;;;5012822;28;20048;-62
2023/04/09 00:21:38;;;;;;;62.08;42.95;;;8.50;99.90;;;;;;5012157;28;20045;-62
2023/04/09 00:24:04;;;;;;;62.35;41.65;;;8.60;99.90;;;;;;5011919;28;20048;-62
2023/04/09 00:26:30;;;;;;;68.63;44.90;;;8.60;99.90;;;;;;4994318;28;20037;-62
2023/04/09 00:28:56;;;;;;;71.22;42.05;;;8.60;99.90;;;;;;4995319;28;20034;-62
2023/04/09 00:31:21;;;;;;;60.55;38.20;;;8.60;99.90;;;;;;4993550;28;20128;-62
2023/04/09 00:33:47;;;;;;;59.75;40.83;;;8.60;99.90;;;;;;4994805;28;20046;-62
2023/04/09 00:36:13;;;;;;;64.07;41.60;;;8.60;99.90;;;;;;4994365;28;20050;-63
2023/04/09 00:38:39;;;;;;;60.45;41.72;;;8.60;99.90;;;;;;5011941;28;20037;-62
2023/04/09 00:41:05;;;;;;;58.35;40.53;;;8.60;99.90;;;;;;5012384;28;20042;-62
2023/04/09 00:43:30;;;;;;;54.90;39.53;;;8.60;99.90;;;;;;4993606;28;20038;-62
2023/04/09 00:45:58;;;;;;;54.80;36.13;;;8.60;99.90;;;;;;4994822;28;20074;-62
2023/04/09 00:48:24;;;;;;;54.63;37.75;;;8.60;99.90;;;;;;5011681;28;20080;-62
2023/04/09 00:50:50;;;;;;;49.50;34.80;;;8.60;99.90;;;;;;4994427;28;20091;-62
2023/04/09 00:53:16;;;;;;;56.38;36.92;;;8.60;99.90;;;;;;5001556;28;20486;-62
2023/04/09 00:55:42;;;;;;;56.58;37.15;;;8.60;99.90;;;;;;5013963;28;20120;-62
2023/04/09 00:58:08;;;;;;;47.50;34.65;;;8.60;99.90;;;;;;5031513;28;20064;-62
2023/04/09 01:00:34;;;;;;;58.35;37.22;;;8.60;99.90;;;;;;5031482;28;20045;-63
2023/04/09 01:03:00;;;;;;;54.65;37.92;;;8.50;99.90;;;;;;5032129;28;20056;-62
2023/04/09 01:05:32;;;;;;;53.33;35.17;;;8.50;99.90;;;;;;5030492;28;20501;-63
2023/04/09 01:08:07;;;;;;;51.72;34.80;;;8.50;99.90;;;;;;5037508;28;20042;-62
2023/04/09 01:11:00;;;;;;;53.30;36.55;;;8.50;99.90;;;;;;4997251;28;20493;-63
2023/04/09 01:13:29;;;;;;;57.22;36.47;;;8.50;99.90;;;;;;5012780;28;20048;-62
2023/04/09 01:16:00;;;;;;;55.92;36.67;;;8.50;99.90;;;;;;5031814;28;20091;-62
2023/04/09 01:18:51;;;;;;;56.20;36.38;;;8.40;99.90;;;;;;5012725;28;20516;-62
2023/04/09 01:21:26;;;;;;;56.92;34.72;;;8.50;99.90;;;;;;5013933;28;20049;-62
2023/04/09 01:23:57;;;;;;;60.35;38.33;;;8.40;99.90;;;;;;5035441;28;20029;-62
2023/04/09 01:26:38;;;;;;;62.03;37.35;;;8.40;99.90;;;;;;5034424;28;20124;-62
2023/04/09 01:29:05;;;;;;;65.70;39.92;;;8.40;99.90;;;;;;5035554;28;20041;-62
2023/04/09 01:31:36;;;;;;;59.90;37.83;;;8.40;99.90;;;;;;5035010;28;20052;-62
2023/04/09 01:34:03;;;;;;;65.28;40.22;;;8.40;99.90;;;;;;5017123;28;20132;-62
2023/04/09 01:36:31;;;;;;;65.00;38.78;;;8.40;99.90;;;;;;5017319;28;20094;-62
2023/04/09 01:38:59;;;;;;;61.55;36.10;;;8.30;99.90;;;;;;5035454;28;20056;-62
2023/04/09 01:41:25;;;;;;;64.40;41.60;;;8.30;99.90;;;;;;5000895;28;20042;-62
2023/04/09 01:43:52;;;;;;;60.50;37.45;;;8.40;99.90;;;;;;5035567;28;20072;-62
2023/04/09 01:46:20;;;;;;;67.57;42.22;;;8.30;99.90;;;;;;5017262;28;20072;-63
2023/04/09 01:48:46;;;;;;;61.85;40.30;;;8.30;99.90;;;;;;5017127;28;20164;-62
2023/04/09 01:51:13;;;;;;;64.78;38.70;;;8.30;99.90;;;;;;5001230;28;20045;-62
2023/04/09 01:53:40;;;;;;;63.67;39.25;;;8.30;99.90;;;;;;5016203;28;20049;-62
2023/04/09 01:56:06;;;;;;;61.38;37.22;;;8.20;99.90;;;;;;5017268;28;20038;-62
2023/04/09 01:58:35;;;;;;;61.80;38.85;;;8.30;99.90;;;;;;5000521;28;20053;-63
2023/04/09 02:01:11;;;;;;;64.35;38.88;;;8.20;99.90;;;;;;5016433;28;20172;-62
2023/04/09 02:03:51;;;;;;;67.40;39.70;;;8.20;99.90;;;;;;5016787;28;20038;-62
2023/04/09 02:06:26;;;;;;;65.88;39.20;;;8.20;99.90;;;;;;5000570;28;20045;-74
2023/04/09 02:08:52;;;;;;;66.60;40.45;;;8.20;99.90;;;;;;5000021;28;20049;-74
2023/04/09 02:11:20;;;;;;;66.00;37.97;;;8.20;99.90;;;;;;5034521;28;20124;-74
2023/04/09 02:13:48;;;;;;;66.75;40.95;;;8.20;99.90;;;;;;5017110;28;20061;-74
2023/04/09 02:16:15;;;;;;;71.43;40.92;;;8.20;99.90;;;;;;5034176;28;20042;-74
2023/04/09 02:18:41;;;;;;;62.85;38.30;;;8.20;99.90;;;;;;5016854;28;20124;-74
2023/04/09 02:21:07;;;;;;;61.60;38.00;;;8.10;99.90;;;;;;5000835;28;20124;-74
2023/04/09 02:23:32;;;;;;;64.40;38.80;;;8.20;99.90;;;;;;5015457;28;20099;-75
2023/04/09 02:25:58;;;;;;;57.85;34.28;;;8.20;99.90;;;;;;5016774;28;20044;-74
2023/04/09 02:28:24;;;;;;;55.15;33.60;;;8.20;99.90;;;;;;5016208;28;20049;-75
2023/04/09 02:30:49;;;;;;;53.08;32.13;;;8.10;99.90;;;;;;5015988;28;20041;-74
2023/04/09 02:33:15;;;;;;;58.47;34.75;;;8.10;99.90;;;;;;5016623;28;20048;-75
2023/04/09 02:35:41;;;;;;;58.42;34.65;;;8.10;99.90;;;;;;5015214;28;20099;-75
2023/04/09 02:38:12;;;;;;;61.03;35.55;;;8.10;99.90;;;;;;5000502;28;20399;-75
2023/04/09 02:40:40;;;;;;;60.88;37.05;;;8.10;99.90;;;;;;5016196;28;20041;-75
2023/04/09 02:43:06;;;;;;;57.08;34.22;;;8.10;99.90;;;;;;5015901;28;20121;-74
2023/04/09 02:45:31;;;;;;;58.70;34.13;;;8.10;99.90;;;;;;4999606;28;20044;-75
2023/04/09 02:47:57;;;;;;;60.53;36.83;;;8.10;99.90;;;;;;5034167;28;20033;-75
2023/04/09 02:50:23;;;;;;;55.05;33.70;;;8.10;99.90;;;;;;5014967;28;20037;-75
2023/04/09 02:52:48;;;;;;;58.42;34.28;;;8.10;99.90;;;;;;5016455;28;20045;-75
2023/04/09 02:55:14;;;;;;;56.47;33.15;;;8.10;99.90;;;;;;5016699;28;20394;-75
2023/04/09 02:57:40;;;;;;;54.05;34.65;;;8.10;99.90;;;;;;5015395;28;20509;-75
2023/04/09 03:00:06;;;;;;;58.63;33.58;;;8.00;99.90;;;;;;5016382;28;20041;-75
2023/04/09 03:02:32;;;;;;;61.75;37.80;;;8.00;99.90;;;;;;5015586;28;20044;-75
2023/04/09 03:04:58;;;;;;;60.38;36.65;;;8.00;99.90;;;;;;5033073;28;20037;-75
2023/04/09 03:07:23;;;;;;;61.65;32.80;;;8.00;99.90;;;;;;5033189;28;20159;-75
2023/04/09 03:09:49;;;;;;;53.47;33.80;;;8.00;99.90;;;;;;5016086;28;20483;-75
2023/04/09 03:12:15;;;;;;;51.25;34.03;;;8.00;99.90;;;;;;5032736;28;20048;-75
2023/04/09 03:14:40;;;;;;;59.90;35.25;;;8.00;99.90;;;;;;5016023;28;20128;-75
2023/04/09 03:17:06;;;;;;;58.45;36.47;;;8.00;99.90;;;;;;5033741;28;20073;-75
2023/04/09 03:19:32;;;;;;;51.25;33.28;;;8.00;99.90;;;;;;5032211;28;20069;-75
2023/04/09 03:21:57;;;;;;;52.80;32.40;;;7.90;99.90;;;;;;5015932;28;20433;-75
2023/04/09 03:24:23;;;;;;;55.92;33.08;;;7.90;99.90;;;;;;5015012;28;20040;-75
2023/04/09 03:26:48;;;;;;;56.65;33.83;;;7.90;99.90;;;;;;5032349;28;20040;-75
2023/04/09 03:29:14;;;;;;;52.88;32.55;;;7.80;99.90;;;;;;5015839;28;20077;-75
2023/04/09 03:31:40;;;;;;;50.95;30.48;;;7.80;99.90;;;;;;5033113;28;20144;-75
2023/04/09 03:34:05;;;;;;;55.85;31.90;;;7.70;99.90;;;;;;5032510;28;20041;-75
2023/04/09 03:36:31;;;;;;;53.45;32.75;;;7.70;99.90;;;;;;5015105;28;20045;-75
2023/04/09 03:38:57;;;;;;;46.28;26.98;;;7.60;99.90;;;;;;5015528;28;20046;-75
2023/04/09 03:41:23;;;;;;;62.60;35.92;;;7.50;99.90;;;;;;5037463;28;20120;-75
2023/04/09 03:43:48;;;;;;;50.65;31.40;;;7.50;99.90;;;;;;5035308;28;20044;-74
2023/04/09 03:46:15;;;;;;;56.95;34.35;;;7.50;99.90;;;;;;5016579;28;20041;-74
2023/04/09 03:48:41;;;;;;;54.22;32.10;;;7.50;99.90;;;;;;5052650;28;20091;-75
2023/04/09 03:51:16;;;;;;;50.30;31.60;;;7.50;99.90;;;;;;5053202;28;20041;-75
2023/04/09 03:53:42;;;;;;;50.38;31.73;;;7.50;99.90;;;;;;5051910;28;20059;-75
2023/04/09 03:56:09;;;;;;;53.58;32.67;;;7.50;99.90;;;;;;5018525;28;20037;-75
2023/04/09 03:58:35;;;;;;;50.05;31.23;;;7.50;99.90;;;;;;5017791;28;20132;-75
2023/04/09 04:01:00;;;;;;;49.30;31.05;;;7.50;99.90;;;;;;5020254;28;20124;-75
2023/04/09 04:03:26;;;;;;;56.65;33.15;;;7.50;99.90;;;;;;5014495;28;20041;-74
2023/04/09 04:05:52;;;;;;;58.70;33.08;;;7.50;99.90;;;;;;5032688;28;20069;-74
2023/04/09 04:08:18;;;;;;;56.33;34.85;;;7.50;99.90;;;;;;5031299;28;20081;-74
2023/04/09 04:10:44;;;;;;;56.40;32.53;;;7.50;99.90;;;;;;5014883;28;20046;-74
2023/04/09 04:13:10;;;;;;;59.53;33.08;;;7.50;99.90;;;;;;5032632;28;20601;-74
2023/04/09 04:15:42;;;;;;;51.08;30.08;;;7.60;99.90;;;;;;5013869;28;20044;-74
2023/04/09 04:18:09;;;;;;;57.33;32.75;;;7.50;99.90;;;;;;5014827;28;20041;-74
2023/04/09 04:20:36;;;;;;;56.38;35.80;;;7.50;99.90;;;;;;4997752;28;20060;-74
2023/04/09 04:23:02;;;;;;;54.22;31.83;;;7.50;99.90;;;;;;5031565;28;20487;-74
2023/04/09 04:25:28;;;;;;;58.90;33.65;;;7.50;99.90;;;;;;5014032;28;20037;-74
2023/04/09 04:27:54;;;;;;;55.55;33.55;;;7.50;99.90;;;;;;5032434;28;20394;-74
2023/04/09 04:30:20;;;;;;;59.50;35.42;;;7.50;99.90;;;;;;5031380;28;20033;-74
2023/04/09 04:32:47;;;;;;;60.42;35.65;;;7.50;99.90;;;;;;4998269;28;20048;-75
2023/04/09 04:35:12;;;;;;;53.95;30.20;;;7.50;99.90;;;;;;5014551;28;20128;-75
2023/04/09 04:37:39;;;;;;;47.70;30.30;;;7.50;99.90;;;;;;5013571;28;20112;-74
2023/04/09 04:40:06;;;;;;;51.88;29.80;;;7.50;99.90;;;;;;5014656;28;20106;-74
2023/04/09 04:42:32;;;;;;;50.75;28.80;;;7.50;99.90;;;;;;4980772;28;20164;-74
2023/04/09 04:44:58;;;;;;;53.08;32.63;;;7.50;99.90;;;;;;5014341;28;20508;-74
2023/04/09 04:47:24;;;;;;;55.22;32.03;;;7.50;99.90;;;;;;5031728;28;20252;-75
2023/04/09 04:49:50;;;;;;;54.60;31.52;;;7.50;99.90;;;;;;5031553;28;20037;-75
2023/04/09 04:52:15;;;;;;;52.05;31.27;;;7.50;99.90;;;;;;5038377;28;20041;-74
2023/04/09 04:54:41;;;;;;;47.08;28.85;;;7.50;99.90;;;;;;5051725;28;20037;-74
2023/04/09 04:57:07;;;;;;;54.53;31.45;;;7.50;99.90;;;;;;5034007;28;20080;-74
2023/04/09 04:59:35;;;;;;;49.40;29.42;;;7.50;99.90;;;;;;5037547;28;20036;-74
2023/04/09 05:02:01;;;;;;;48.10;27.50;;;7.50;99.90;;;;;;5038336;28;20513;-75
2023/04/09 05:04:27;;;;;;;45.13;26.75;;;7.50;99.90;;;;;;5054726;28;20064;-75
2023/04/09 05:06:52;;;;;;;44.80;26.67;;;7.50;99.90;;;;;;5055993;28;20089;-74
2023/04/09 05:09:18;;;;;;;43.03;27.50;;;7.50;99.90;;;;;;5037757;28;20056;-75
2023/04/09 05:11:43;;;;;;;40.92;26.10;;;7.50;99.90;;;;;;5036419;28;20051;-75
2023/04/09 05:14:09;;;;;;;43.22;26.15;;;7.50;99.90;;;;;;5037770;28;20047;-74
2023/04/09 05:16:35;;;;;;;43.88;26.23;;;7.50;99.90;;;;;;5020912;28;20051;-74
2023/04/09 05:19:01;;;;;;;44.28;27.40;;;7.60;99.90;;;;;;5055200;28;20413;-75
2023/04/09 05:21:26;;;;;;;41.38;26.38;;;7.50;99.90;;;;;;5020794;28;20091;-75
2023/04/09 05:23:53;;;;;;;46.83;26.90;;;7.50;99.90;;;;;;5037790;28;20045;-75
2023/04/09 05:26:18;;;;;;;43.33;26.20;;;7.60;99.90;;;;;;5036594;28;20036;-75
2023/04/09 05:28:44;;;;;;;41.78;25.92;;;7.60;99.90;;;;;;5037393;28;20404;-75
2023/04/09 05:31:11;;;;;;;40.28;26.75;;;7.50;99.90;;;;;;5037779;28;20041;-75
2023/04/09 05:33:38;;;;;;;42.60;25.98;;;7.50;99.90;;;;;;5035973;28;20044;-75
2023/04/09 05:36:04;;;;;;;41.53;25.10;;;7.50;99.90;;;;;;5021088;28;20045;-75
2023/04/09 05:38:30;;;;;;;47.13;26.98;;;7.50;99.90;;;;;;5020528;28;20043;-75
2023/04/09 05:40:56;;;;;;;41.55;25.95;;;7.50;99.90;;;;;;5037080;28;20033;-75
2023/04/09 05:43:21;;;;;;;89.50;60.00;;;7.60;99.90;;;;;;5054693;28;20512;-74
2023/04/09 05:45:47;;;;;;;44.50;29.17;;;7.50;99.90;;;;;;5054185;28;20043;-74
2023/04/09 05:48:13;;;;;;;51.13;29.98;;;7.60;99.90;;;;;;5020994;28;20124;-75
2023/04/09 05:50:38;;;;;;;46.58;29.23;;;7.60;99.90;;;;;;5054610;28;20124;-75
2023/04/09 05:53:04;;;;;;;45.90;28.48;;;7.60;99.90;;;;;;5036181;28;20615;-75
2023/04/09 05:55:31;;;;;;;45.38;30.60;;;7.60;99.90;;;;;;5018782;28;20033;-75
2023/04/09 05:57:57;;;;;;;47.22;28.40;;;7.60;99.90;;;;;;5035205;28;20529;-75
2023/04/09 06:00:22;;;;;;;42.03;28.33;;;7.60;99.90;;;;;;5016033;28;20041;-75
2023/04/09 06:02:48;;;;;;;39.65;27.40;;;7.70;99.90;;;;;;5017217;28;20049;-75
2023/04/09 06:05:14;;;;;;;32.88;22.50;;;7.70;99.90;;;;;;5017297;28;20048;-75
2023/04/09 06:07:40;;;;;;;37.30;23.65;;;7.70;99.90;;;;;;5033731;28;20134;-75
2023/04/09 06:10:06;;;;;;;34.60;22.42;;;7.70;99.90;;;;;;5015948;28;20030;-74
2023/04/09 06:12:34;;;;;;;41.60;24.08;;;7.70;99.90;;;;;;5037564;28;20150;-75
2023/04/09 06:14:59;;;;;;;35.33;22.10;;;7.70;99.90;;;;;;5008078;28;20422;-75
2023/04/09 06:17:25;;;;;;;37.97;23.35;;;7.80;99.90;;;;;;5019428;28;20045;-74
2023/04/09 06:19:51;;;;;;;34.67;22.95;;;7.80;99.90;;;;;;5054728;28;20052;-74
2023/04/09 06:22:16;;;;;;;36.00;23.55;;;7.80;99.90;;;;;;5053550;28;20048;-74
2023/04/09 06:24:42;;;;;;;37.60;23.65;;;7.80;99.90;;;;;;5054165;28;20056;-74
2023/04/09 06:27:07;;;;;;;35.63;23.98;;;7.90;99.90;;;;;;5036792;28;20033;-74
2023/04/09 06:29:33;;;;;;;35.28;21.92;;;7.90;99.90;;;;;;5018848;28;20029;-74
2023/04/09 06:31:59;;;;;;;34.92;24.27;;;7.90;99.90;;;;;;5036324;28;20048;-74
2023/04/09 06:34:25;;;;;;;33.10;20.48;;;7.90;99.90;;;;;;5035793;28;20088;-74
2023/04/09 06:36:50;;;;;;;28.40;19.65;;;7.90;99.90;;;;;;5036115;28;20045;-74
2023/04/09 06:39:16;;;;;;;30.35;18.58;;;7.90;99.90;;;;;;5036327;28;20159;-74
2023/04/09 06:41:42;;;;;;;30.70;19.80;;;7.90;99.90;;;;;;5035820;28;20033;-74
2023/04/09 06:44:07;;;;;;;29.40;19.80;;;7.90;99.90;;;;;;5019213;28;20119;-74
2023/04/09 06:46:33;;;;;;;32.22;20.63;;;7.90;99.90;;;;;;5035975;28;20048;-74
2023/04/09 06:48:58;;;;;;;28.90;19.95;;;7.90;99.90;;;;;;5035422;28;20371;-74
2023/04/09 06:51:24;;;;;;;34.30;21.30;;;7.90;99.90;;;;;;5054075;28;20041;-72
2023/04/09 06:53:50;;;;;;;31.35;20.35;;;8.00;99.90;;;;;;5036536;28;20045;-71
2023/04/09 06:56:15;;;;;;;32.78;20.65;;;8.00;99.90;;;;;;5018847;28;20045;-72
2023/04/09 06:58:41;;;;;;;31.45;20.30;;;8.00;99.90;;;;;;5053629;28;20398;-73
2023/04/09 07:01:07;;;;;;;31.45;21.40;;;8.00;99.90;;;;;;5053792;28;20049;-72
2023/04/09 07:03:32;;;;;;;32.83;21.58;;;8.00;99.90;;;;;;5033521;28;20037;-71
2023/04/09 07:05:58;;;;;;;30.08;20.75;;;8.00;99.90;;;;;;5019606;28;20044;-70
2023/04/09 07:08:24;;;;;;;36.10;22.35;;;8.00;99.90;;;;;;4998929;28;20057;-71
2023/04/09 07:10:50;;;;;;;32.42;20.67;;;8.00;99.90;;;;;;5015137;28;20390;-72
2023/04/09 07:13:15;;;;;;;33.60;21.98;;;8.00;99.90;;;;;;5015618;28;20068;-72
2023/04/09 07:15:41;;;;;;;30.58;20.00;;;8.00;99.90;;;;;;5033496;28;20087;-71
2023/04/09 07:18:07;;;;;;;33.45;21.35;;;8.00;99.90;;;;;;5047137;28;20094;-71
2023/04/09 07:20:33;;;;;;;33.92;23.45;;;8.00;99.90;;;;;;5049155;28;20029;-70
2023/04/09 07:22:59;;;;;;;34.20;22.25;;;8.00;99.90;;;;;;5042350;28;20052;-70
2023/04/09 07:25:25;;;;;;;31.00;20.25;;;8.10;99.90;;;;;;5031069;28;20104;-70
2023/04/09 07:27:51;;;;;;;32.50;21.58;;;8.10;99.90;;;;;;5010803;28;20041;-71
2023/04/09 07:30:17;;;;;;;33.28;22.55;;;8.10;99.90;;;;;;5023931;28;20026;-71
2023/04/09 07:32:42;;;;;;;34.20;22.30;;;8.10;99.90;;;;;;5012032;28;20549;-71
2023/04/09 07:35:08;;;;;;;34.80;23.23;;;8.10;99.90;;;;;;5013438;28;20083;-71
2023/04/09 07:37:34;;;;;;;35.55;24.42;;;8.10;99.90;;;;;;4996611;28;20045;-72
2023/04/09 07:40:02;;;;;;;38.70;25.08;;;8.10;99.90;;;;;;5014155;28;20045;-71
2023/04/09 07:42:29;;;;;;;36.17;24.10;;;8.10;99.90;;;;;;5050297;28;20064;-71
2023/04/09 07:44:55;;;;;;;35.97;23.17;;;8.20;99.90;;;;;;5050510;28;20147;-72
2023/04/09 07:47:22;;;;;;;32.72;20.73;;;8.20;99.90;;;;;;5049634;28;20052;-71
2023/04/09 07:49:48;;;;;;;30.85;20.95;;;8.20;99.90;;;;;;5049260;28;20064;-71
2023/04/09 07:52:13;;;;;;;31.83;22.05;;;8.20;99.90;;;;;;5032126;28;20037;-71
2023/04/09 07:54:39;;;;;;;31.90;22.48;;;8.20;99.90;;;;;;5011085;28;20102;-70
2023/04/09 07:57:05;;;;;;;33.65;21.65;;;8.20;99.90;;;;;;5031777;28;20048;-72
2023/04/09 07:59:31;;;;;;;35.80;22.20;;;8.20;99.90;;;;;;5049142;28;20045;-72
2023/04/09 08:01:58;;;;;;;34.15;22.05;;;8.30;99.90;;;;;;5050079;28;20049;-72
2023/04/09 08:04:23;;;;;;;32.88;23.10;;;8.30;99.90;;;;;;5049636;28;20494;-69
2023/04/09 08:06:50;;;;;;;33.70;22.83;;;8.30;99.90;;;;;;5031268;28;20059;-71
2023/04/09 08:09:20;;;;;;;35.67;23.42;;;8.30;99.90;;;;;;5031634;28;20037;-70
2023/04/09 08:11:47;;;;;;;35.10;22.45;;;8.40;99.90;;;;;;5032231;28;20124;-71
2023/04/09 08:14:13;;;;;;;29.17;20.67;;;8.40;99.90;;;;;;5030959;28;20049;-70
2023/04/09 08:16:41;;;;;;;31.48;22.20;;;8.40;99.90;;;;;;5005493;28;20092;-70
2023/04/09 08:19:07;;;;;;;34.58;22.73;;;8.40;99.90;;;;;;5022542;28;20444;-72
2023/04/09 08:21:33;;;;;;;31.70;20.95;;;8.40;99.90;;;;;;5030924;28;20506;-72
2023/04/09 08:24:03;;;;;;;34.42;22.58;;;8.40;99.90;;;;;;5028340;28;20083;-71
2023/04/09 08:26:29;;;;;;;34.05;23.42;;;8.40;99.90;;;;;;5029755;28;20422;-71
2023/04/09 08:28:55;;;;;;;29.67;20.42;;;8.40;99.90;;;;;;5019687;28;20037;-71
2023/04/09 08:31:21;;;;;;;34.08;22.20;;;8.50;99.90;;;;;;5033589;28;20049;-71
2023/04/09 08:33:47;;;;;;;33.85;20.92;;;8.50;99.90;;;;;;5016513;28;20091;-70
2023/04/09 08:36:12;;;;;;;34.20;22.05;;;8.50;99.90;;;;;;5040889;28;20144;-71
2023/04/09 08:38:38;;;;;;;33.05;22.23;;;8.60;99.90;;;;;;5031206;28;20116;-71
2023/04/09 08:41:04;;;;;;;29.98;20.88;;;8.60;99.90;;;;;;5015245;28;20310;-70
2023/04/09 08:43:32;;;;;;;33.85;21.98;;;8.60;99.90;;;;;;5048110;28;20029;-71
2023/04/09 08:45:58;;;;;;;35.80;22.13;;;8.60;99.90;;;;;;5031725;28;20037;-71
2023/04/09 08:48:24;;;;;;;29.05;20.40;;;8.60;99.90;;;;;;5049040;28;20068;-72
2023/04/09 08:50:50;;;;;;;31.73;19.50;;;8.70;99.90;;;;;;5029151;28;20163;-71
2023/04/09 08:53:18;;;;;;;31.85;21.95;;;8.70;99.90;;;;;;5049261;28;20041;-71
2023/04/09 08:55:47;;;;;;;27.90;19.85;;;8.70;99.90;;;;;;5030562;28;20468;-71
2023/04/09 08:58:12;;;;;;;27.20;19.52;;;8.70;99.90;;;;;;5031314;28;20045;-71
2023/04/09 09:00:39;;;;;;;27.50;18.95;;;8.70;99.90;;;;;;5030932;28;20171;-71
2023/04/09 09:03:07;;;;;;;30.27;20.08;;;8.80;99.90;;;;;;5030668;28;20727;-71
2023/04/09 09:05:41;;;;;;;31.00;20.17;;;8.80;99.90;;;;;;5029713;28;20037;-70
2023/04/09 09:08:11;;;;;;;29.50;18.93;;;8.90;99.90;;;;;;5030828;28;20060;-70
2023/04/09 09:10:44;;;;;;;28.15;18.67;;;8.90;99.90;;;;;;5010348;28;20284;-70
2023/04/09 09:13:23;;;;;;;30.50;20.95;;;9.00;99.90;;;;;;5020477;28;20132;-71
2023/04/09 09:15:53;;;;;;;30.35;20.25;;;9.00;99.90;;;;;;5027123;28;20041;-71
2023/04/09 09:18:20;;;;;;;32.40;21.77;;;9.00;99.90;;;;;;5030100;28;20068;-69
2023/04/09 09:20:46;;;;;;;31.92;20.33;;;9.00;99.90;;;;;;5015641;28;20112;-71
2023/04/09 09:23:12;;;;;;;32.40;22.23;;;9.00;99.90;;;;;;5024375;28;20044;-71
2023/04/09 09:25:42;;;;;;;33.33;22.73;;;9.00;99.90;;;;;;5004668;28;20436;-71
2023/04/09 09:28:11;;;;;;;28.52;21.02;;;8.90;99.90;;;;;;5016955;28;20104;-70
2023/04/09 09:30:39;;;;;;;28.85;19.33;;;8.90;99.90;;;;;;5017770;28;20536;-71
2023/04/09 09:33:09;;;;;;;32.15;21.67;;;8.90;99.90;;;;;;5031418;28;20056;-71
2023/04/09 09:35:53;;;;;;;30.42;20.75;;;8.90;99.90;;;;;;5031031;28;20071;-70
2023/04/09 09:38:19;;;;;;;32.50;20.95;;;9.00;99.90;;;;;;5030905;28;20422;-70
2023/04/09 09:40:46;;;;;;;34.53;21.98;;;9.00;99.90;;;;;;5031273;28;20053;-70
2023/04/09 09:43:12;;;;;;;32.55;22.85;;;9.00;99.90;;;;;;5027106;28;20037;-70
2023/04/09 09:45:39;;;;;;;31.10;21.88;;;9.10;99.90;;;;;;5021923;28;20033;-71
2023/04/09 09:48:05;;;;;;;38.40;23.70;;;9.10;99.90;;;;;;5015342;28;20048;-70
2023/04/09 09:50:34;;;;;;;33.05;22.95;;;9.20;99.90;;;;;;5013517;28;20045;-70
2023/04/09 09:53:10;;;;;;;33.22;23.33;;;9.20;99.90;;;;;;5024032;28;20048;-70
2023/04/09 09:55:42;;;;;;;33.22;22.42;;;9.30;99.90;;;;;;5049650;28;20378;-71
2023/04/09 09:58:21;;;;;;;31.17;20.55;;;9.40;99.90;;;;;;5020982;28;20056;-71
2023/04/09 10:00:49;;;;;;;32.03;21.75;;;9.40;99.90;;;;;;5017522;28;20060;-71
2023/04/09 10:03:22;;;;;;;32.33;21.67;;;9.40;99.90;;;;;;5006571;28;20098;-71
2023/04/09 10:05:48;;;;;;;37.30;24.02;;;9.40;99.90;;;;;;5034206;28;20059;-70
2023/04/09 10:08:15;;;;;;;31.60;22.67;;;9.50;99.90;;;;;;5032314;28;20053;-71
2023/04/09 10:10:42;;;;;;;34.40;21.80;;;9.60;99.90;;;;;;5032731;28;20044;-71
2023/04/09 10:13:17;;;;;;;32.97;21.38;;;9.60;99.90;;;;;;5033373;28;20049;-71
2023/04/09 10:15:44;;;;;;;33.28;23.45;;;9.70;99.90;;;;;;5033927;28;20044;-71
2023/04/09 10:18:10;;;;;;;36.40;23.17;;;9.80;99.90;;;;;;5017780;28;20131;-71
2023/04/09 10:20:47;;;;;;;30.60;22.15;;;9.80;99.90;;;;;;5010865;28;20116;-71
2023/04/09 10:23:23;;;;;;;31.83;20.30;;;9.90;99.90;;;;;;5007604;28;20048;-71
2023/04/09 10:25:48;;;;;;;31.13;21.38;;;10.00;99.90;;;;;;5051366;28;20084;-70
2023/04/09 10:28:17;;;;;;;32.88;22.17;;;10.00;99.90;;;;;;5033054;28;20671;-71
2023/04/09 10:30:43;;;;;;;36.25;22.67;;;10.10;99.90;;;;;;4999589;28;20170;-72
2023/04/09 10:33:20;;;;;;;35.05;24.38;;;10.10;99.90;;;;;;5038129;28;20135;-72
2023/04/09 10:35:47;;;;;;;34.38;22.27;;;10.10;99.90;;;;;;5026337;28;20055;-73
2023/04/09 10:38:16;;;;;;;33.50;22.33;;;10.20;99.90;;;;;;5018383;28;20363;-74
2023/04/09 10:40:48;;;;;;;34.25;24.05;;;10.30;99.90;;;;;;5016743;28;20167;-62
2023/04/09 10:43:18;;;;;;;34.10;23.00;;;10.30;99.90;;;;;;5030081;28;20422;-62
2023/04/09 10:45:44;;;;;;;37.13;23.52;;;10.40;99.90;;;;;;5030126;28;20111;-62
2023/04/09 10:48:12;;;;;;;37.72;24.27;;;10.50;99.90;;;;;;5033167;28;20127;-62
2023/04/09 10:50:41;;;;;;;35.55;25.23;;;10.60;99.90;;;;;;5015183;28;20044;-62
2023/04/09 10:53:06;;;;;;;30.85;21.27;;;10.70;99.90;;;;;;5034024;28;20055;-62
2023/04/09 10:55:40;;;;;;;32.75;23.00;;;10.80;99.90;;;;;;5031998;28;20037;-62
2023/04/09 10:58:10;;;;;;;36.25;23.65;;;10.90;99.90;;;;;;5031993;28;20146;-62
2023/04/09 11:00:38;;;;;;;32.38;23.20;;;11.00;99.90;;;;;;5016259;28;20052;-62
2023/04/09 11:03:12;;;;;;;34.40;23.42;;;11.10;99.90;;;;;;5050031;28;20498;-62
2023/04/09 11:05:40;;;;;;;33.78;21.77;;;11.10;99.90;;;;;;5032404;28;20045;-62
2023/04/09 11:08:11;;;;;;;30.63;20.92;;;11.20;99.90;;;;;;5013040;28;20057;-62
2023/04/09 11:10:39;;;;;;;41.40;26.70;;;11.20;99.90;;;;;;5012347;28;20084;-62
2023/04/09 11:13:05;;;;;;;68.22;42.65;;;11.10;99.90;;;;;;5031249;28;20049;-62
2023/04/09 11:15:34;;;;;;;38.40;25.30;;;11.30;99.90;;;;;;5044541;28;20166;-61
2023/04/09 11:18:01;;;;;;;38.28;25.65;;;11.30;99.90;;;;;;5035351;28;20048;-61
2023/04/09 11:20:26;;;;;;;35.10;23.55;;;11.50;99.90;;;;;;5031066;28;20075;-61
2023/04/09 11:22:54;;;;;;;31.52;22.45;;;11.80;99.90;;;;;;5024291;28;20091;-61
2023/04/09 11:25:31;;;;;;;34.42;24.20;;;12.00;99.90;;;;;;5030368;28;20091;-60
2023/04/09 11:27:57;;;;;;;32.45;21.80;;;12.10;99.90;;;;;;5014929;28;20169;-60
2023/04/09 11:30:23;;;;;;;35.53;24.20;;;12.10;99.90;;;;;;4999057;28;20037;-59
2023/04/09 11:32:49;;;;;;;32.85;21.55;;;12.20;99.90;;;;;;5015885;28;20752;-60
2023/04/09 11:35:19;;;;;;;75.05;47.75;;;12.30;99.90;;;;;;5033568;28;20406;-62
2023/04/09 11:37:46;;;;;;;32.70;23.85;;;12.40;99.90;;;;;;5026866;28;20044;-62
2023/04/09 11:40:15;;;;;;;34.42;24.13;;;12.40;99.90;;;;;;5026231;28;20084;-62
2023/04/09 11:42:43;;;;;;;27.95;21.75;;;12.60;99.90;;;;;;5013842;28;20045;-62
2023/04/09 11:45:10;;;;;;;28.92;20.98;;;12.70;99.90;;;;;;4996494;28;20045;-62
2023/04/09 11:47:37;;;;;;;28.05;20.20;;;12.80;99.90;;;;;;5012858;28;20544;-61
2023/04/09 11:50:05;;;;;;;27.92;19.52;;;12.80;99.90;;;;;;5013780;28;20042;-62
2023/04/09 11:52:34;;;;;;;34.53;22.80;;;12.70;99.90;;;;;;5044024;28;20419;-62
2023/04/09 11:55:03;;;;;;;28.30;21.63;;;12.70;99.90;;;;;;5032399;28;20045;-62
2023/04/09 11:57:43;;;;;;;28.88;19.30;;;12.70;99.90;;;;;;5014931;28;20072;-62
2023/04/09 12:00:12;;;;;;;29.38;22.48;;;12.80;99.90;;;;;;5031270;28;20045;-62
2023/04/09 12:02:43;;;;;;;27.17;21.08;;;12.80;99.90;;;;;;5014261;28;20528;-62
2023/04/09 12:05:21;;;;;;;31.13;21.55;;;12.80;99.90;;;;;;5049329;28;20049;-62
2023/04/09 12:07:46;;;;;;;30.33;22.50;;;12.70;99.90;;;;;;5029549;28;20433;-62
2023/04/09 12:10:12;;;;;;;28.88;20.60;;;12.70;99.90;;;;;;5032129;28;20056;-62
2023/04/09 12:12:43;;;;;;;27.83;21.15;;;12.70;99.90;;;;;;5018535;28;20053;-62
2023/04/09 12:15:24;;;;;;;32.80;23.45;;;12.70;99.90;;;;;;5002840;28;20573;-62
2023/04/09 12:17:52;;;;;;;28.70;19.92;;;12.90;99.90;;;;;;4998440;28;20046;-62
2023/04/09 12:20:35;;;;;;;27.10;20.73;;;13.00;99.90;;;;;;4994432;28;20128;-63
2023/04/09 12:23:03;;;;;;;25.58;19.23;;;13.10;99.90;;;;;;5029789;28;20037;-62
2023/04/09 12:25:37;;;;;;;27.50;18.77;;;13.30;99.90;;;;;;5029017;28;20128;-60
2023/04/09 12:28:03;;;;;;;25.95;19.65;;;13.40;99.90;;;;;;4995320;28;20462;-60
2023/04/09 12:30:29;;;;;;;25.38;19.50;;;13.50;99.90;;;;;;5033192;28;20128;-60
2023/04/09 12:32:55;;;;;;;27.17;19.70;;;13.60;99.90;;;;;;5030918;28;20464;-60
2023/04/09 12:35:21;;;;;;;26.73;19.10;;;13.70;99.90;;;;;;5030313;28;20049;-60
2023/04/09 12:37:47;;;;;;;27.80;20.27;;;13.80;99.90;;;;;;5031307;28;20044;-60